createdAt,value
2023-01-28T00:01:17.307Z,4.73
2023-01-28T00:03:44.031Z,4.80
2023-01-28T00:06:13.537Z,4.79
2023-01-28T00:08:40.720Z,4.70
2023-01-28T00:11:08.170Z,4.69
2023-01-28T00:13:34.898Z,4.76
2023-01-28T00:16:04.969Z,4.79
2023-01-28T00:18:32.510Z,4.77
2023-01-28T00:21:03.830Z,4.70
2023-01-28T00:23:32.836Z,4.69
2023-01-28T00:26:00.487Z,4.70
2023-01-28T00:28:27.272Z,4.71
2023-01-28T00:30:53.821Z,4.71
2023-01-28T00:33:20.399Z,4.75
2023-01-28T00:35:47.477Z,4.77
2023-01-28T00:38:14.013Z,4.77
2023-01-28T00:40:40.449Z,4.80
2023-01-28T00:43:06.918Z,4.80
2023-01-28T00:45:33.399Z,4.74
2023-01-28T00:47:59.944Z,4.76
2023-01-28T00:50:26.435Z,4.71
2023-01-28T00:52:52.906Z,4.67
2023-01-28T00:55:19.991Z,4.66
2023-01-28T00:57:46.433Z,4.68
2023-01-28T01:00:13.156Z,4.65
2023-01-28T01:02:41.755Z,4.69
2023-01-28T01:05:08.808Z,4.69
2023-01-28T01:07:41.961Z,4.57
2023-01-28T01:10:11.321Z,4.60
2023-01-28T01:12:38.999Z,4.58
2023-01-28T01:15:10.302Z,4.61
2023-01-28T01:17:41.901Z,4.54
2023-01-28T01:20:13.265Z,4.52
2023-01-28T01:22:39.788Z,4.59
2023-01-28T01:25:06.759Z,4.61
2023-01-28T01:27:33.362Z,4.56
2023-01-28T01:29:59.884Z,4.50
2023-01-28T01:32:30.821Z,4.49
2023-01-28T01:34:58.046Z,4.50
2023-01-28T01:37:24.507Z,4.48
2023-01-28T01:39:51.035Z,4.44
2023-01-28T01:42:17.532Z,4.51
2023-01-28T01:45:22.391Z,4.59
2023-01-28T01:48:02.098Z,4.55
2023-01-28T01:50:40.172Z,4.54
2023-01-28T01:53:14.097Z,4.48
2023-01-28T01:55:44.819Z,4.55
2023-01-28T01:58:17.236Z,4.52
2023-01-28T02:00:43.984Z,4.53
2023-01-28T02:03:11.596Z,4.54
2023-01-28T02:05:39.496Z,4.57
2023-01-28T02:08:21.512Z,4.54
2023-01-28T02:11:09.320Z,4.56
2023-01-28T02:13:41.289Z,4.58
2023-01-28T02:16:09.513Z,4.52
2023-01-28T02:18:36.161Z,4.48
2023-01-28T02:21:40.069Z,4.45
2023-01-28T02:24:34.762Z,4.37
2023-01-28T02:27:16.199Z,4.33
2023-01-28T02:29:54.446Z,4.30
2023-01-28T02:32:29.427Z,4.34
2023-01-28T02:35:10.278Z,4.34
2023-01-28T02:38:11.421Z,4.46
2023-01-28T02:41:00.753Z,4.47
2023-01-28T02:43:31.413Z,4.47
2023-01-28T02:46:17.371Z,4.44
2023-01-28T02:48:44.063Z,4.40
2023-01-28T02:51:21.896Z,4.50
2023-01-28T02:53:59.556Z,4.56
2023-01-28T02:56:36.273Z,4.50
2023-01-28T02:59:34.006Z,4.47
2023-01-28T03:02:12.398Z,4.47
2023-01-28T03:04:48.157Z,4.40
2023-01-28T03:07:17.460Z,4.47
2023-01-28T03:09:46.858Z,4.53
2023-01-28T03:12:37.946Z,4.42
2023-01-28T03:15:32.972Z,4.30
2023-01-28T03:18:43.008Z,4.25
2023-01-28T03:21:32.358Z,4.29
2023-01-28T03:24:30.191Z,4.39
2023-01-28T03:27:24.995Z,4.40
2023-01-28T03:30:15.232Z,4.38
2023-01-28T03:33:02.120Z,4.32
2023-01-28T03:35:51.601Z,4.32
2023-01-28T03:38:23.221Z,4.36
2023-01-28T03:40:50.967Z,4.34
2023-01-28T03:43:17.534Z,4.29
2023-01-28T03:45:43.964Z,4.30
2023-01-28T03:48:10.465Z,4.33
2023-01-28T03:50:37.035Z,4.37
2023-01-28T03:53:14.972Z,4.36
2023-01-28T03:55:43.123Z,4.35
2023-01-28T03:58:10.740Z,4.32
2023-01-28T04:00:42.135Z,4.30
2023-01-28T04:03:19.696Z,4.23
2023-01-28T04:06:01.485Z,4.27
2023-01-28T04:08:28.533Z,4.37
2023-01-28T04:10:56.289Z,4.38
2023-01-28T04:13:23.019Z,4.32
2023-01-28T04:15:49.802Z,4.32
2023-01-28T04:18:16.398Z,4.29
2023-01-28T04:20:42.928Z,4.33
2023-01-28T04:23:09.756Z,4.30
2023-01-28T04:25:36.204Z,4.32
2023-01-28T04:28:02.835Z,4.34
2023-01-28T04:30:29.396Z,4.37
2023-01-28T04:32:55.877Z,4.38
2023-01-28T04:35:22.331Z,4.29
2023-01-28T04:37:48.748Z,4.31
2023-01-28T04:40:15.324Z,4.26
2023-01-28T04:42:41.862Z,4.28
2023-01-28T04:45:08.930Z,4.35
2023-01-28T04:47:35.433Z,4.35
2023-01-28T04:50:01.933Z,4.24
2023-01-28T04:52:28.390Z,4.19
2023-01-28T04:54:54.873Z,4.11
2023-01-28T04:57:21.370Z,4.12
2023-01-28T04:59:47.836Z,4.15
2023-01-28T05:02:14.315Z,4.22
2023-01-28T05:04:40.831Z,4.16
2023-01-28T05:07:07.279Z,4.16
2023-01-28T05:09:33.767Z,4.13
2023-01-28T05:12:00.269Z,4.09
2023-01-28T05:14:26.826Z,4.15
2023-01-28T05:16:53.269Z,4.13
2023-01-28T05:19:19.827Z,4.13
2023-01-28T05:21:46.469Z,4.16
2023-01-28T05:24:13.010Z,4.12
2023-01-28T05:26:39.566Z,4.12
2023-01-28T05:29:06.084Z,4.12
2023-01-28T05:31:32.644Z,4.08
2023-01-28T05:33:59.377Z,4.06
2023-01-28T05:36:26.127Z,3.92
2023-01-28T05:38:52.626Z,3.94
2023-01-28T05:41:19.080Z,3.95
2023-01-28T05:43:45.558Z,3.94
2023-01-28T05:46:12.029Z,4.01
2023-01-28T05:48:38.598Z,3.97
2023-01-28T05:51:06.032Z,3.98
2023-01-28T05:53:32.606Z,4.04
2023-01-28T05:55:59.133Z,4.04
2023-01-28T05:58:27.524Z,3.95
2023-01-28T06:00:56.437Z,3.89
2023-01-28T06:03:23.142Z,3.86
2023-01-28T06:05:49.574Z,3.90
2023-01-28T06:08:16.031Z,3.86
2023-01-28T06:10:42.720Z,3.89
2023-01-28T06:13:09.189Z,3.87
2023-01-28T06:15:35.737Z,3.92
2023-01-28T06:18:02.304Z,3.89
2023-01-28T06:20:28.987Z,3.92
2023-01-28T06:22:55.488Z,3.86
2023-01-28T06:25:22.014Z,3.90
2023-01-28T06:27:48.542Z,3.91
2023-01-28T06:30:15.504Z,4.00
2023-01-28T06:32:42.158Z,4.02
2023-01-28T06:35:08.913Z,3.90
2023-01-28T06:37:35.430Z,3.85
2023-01-28T06:40:02.849Z,3.78
2023-01-28T06:42:29.298Z,3.78
2023-01-28T06:44:55.767Z,3.78
2023-01-28T06:47:22.231Z,3.76
2023-01-28T06:49:48.736Z,3.73
2023-01-28T06:52:15.185Z,3.81
2023-01-28T06:54:41.671Z,3.69
2023-01-28T06:57:08.121Z,3.48
2023-01-28T06:59:34.780Z,3.47
2023-01-28T07:02:01.204Z,3.57
2023-01-28T07:04:27.670Z,3.69
2023-01-28T07:06:54.135Z,3.73
2023-01-28T07:09:20.743Z,3.76
2023-01-28T07:11:47.210Z,3.79
2023-01-28T07:14:13.676Z,3.75
2023-01-28T07:16:40.148Z,3.68
2023-01-28T07:19:06.610Z,3.51
2023-01-28T07:21:33.107Z,3.45
2023-01-28T07:23:59.607Z,3.59
2023-01-28T07:26:26.145Z,3.66
2023-01-28T07:28:52.615Z,3.70
2023-01-28T07:31:19.234Z,3.75
2023-01-28T07:33:45.858Z,3.68
2023-01-28T07:36:12.328Z,3.76
2023-01-28T07:38:38.778Z,3.79
2023-01-28T07:41:05.501Z,3.73
2023-01-28T07:43:31.974Z,3.72
2023-01-28T07:46:01.683Z,3.72
2023-01-28T07:48:28.201Z,3.67
2023-01-28T07:50:58.739Z,3.72
2023-01-28T07:53:25.361Z,3.66
2023-01-28T07:55:51.905Z,3.67
2023-01-28T07:58:18.439Z,3.60
2023-01-28T08:00:45.002Z,3.65
2023-01-28T08:03:16.433Z,3.66
2023-01-28T08:05:49.574Z,3.74
2023-01-28T08:08:17.067Z,3.79
2023-01-28T08:10:44.308Z,3.75
2023-01-28T08:13:11.887Z,3.77
2023-01-28T08:15:38.955Z,3.73
2023-01-28T08:18:06.717Z,3.71
2023-01-28T08:20:33.318Z,3.62
2023-01-28T08:23:12.313Z,3.61
2023-01-28T08:25:38.952Z,3.63
2023-01-28T08:28:06.659Z,3.58
2023-01-28T08:30:34.113Z,3.62
2023-01-28T08:33:00.880Z,3.67
2023-01-28T08:35:28.384Z,3.60
2023-01-28T08:37:55.021Z,3.60
2023-01-28T08:40:21.881Z,3.61
2023-01-28T08:42:52.962Z,3.59
2023-01-28T08:45:27.671Z,3.62
2023-01-28T08:47:58.429Z,3.67
2023-01-28T08:50:28.219Z,3.76
2023-01-28T08:52:57.119Z,3.79
2023-01-28T08:55:24.128Z,3.77
2023-01-28T08:57:50.644Z,3.84
2023-01-28T09:00:17.833Z,3.85
2023-01-28T09:02:44.443Z,3.80
2023-01-28T09:05:11.189Z,3.89
2023-01-28T09:07:38.793Z,3.81
2023-01-28T09:10:06.432Z,3.78
2023-01-28T09:12:33.368Z,3.80
2023-01-28T09:14:59.859Z,3.89
2023-01-28T09:17:26.342Z,3.92
2023-01-28T09:19:52.928Z,3.90
2023-01-28T09:22:19.476Z,3.94
2023-01-28T09:24:45.950Z,4.26
2023-01-28T09:27:12.531Z,4.33
2023-01-28T09:29:39.081Z,4.32
2023-01-28T09:32:09.546Z,4.28
2023-01-28T09:34:36.192Z,4.29
2023-01-28T09:37:02.700Z,4.35
2023-01-28T09:39:29.179Z,4.20
2023-01-28T09:42:13.840Z,4.23
2023-01-28T09:44:43.015Z,4.35
2023-01-28T09:47:20.797Z,4.38
2023-01-28T09:49:50.811Z,4.31
2023-01-28T09:52:21.712Z,4.35
2023-01-28T09:55:07.332Z,4.43
2023-01-28T09:57:55.585Z,4.42
2023-01-28T10:00:35.158Z,4.47
2023-01-28T10:03:08.685Z,4.50
2023-01-28T10:05:50.920Z,4.58
2023-01-28T10:08:52.393Z,4.57
2023-01-28T10:11:44.005Z,4.49
2023-01-28T10:14:31.834Z,4.52
2023-01-28T10:17:12.940Z,4.68
2023-01-28T10:19:53.779Z,4.68
2023-01-28T10:22:29.479Z,4.53
2023-01-28T10:25:01.790Z,4.49
2023-01-28T10:27:30.851Z,4.51
2023-01-28T10:29:59.896Z,4.73
2023-01-28T10:32:35.777Z,4.95
2023-01-28T10:35:03.525Z,5.10
2023-01-28T10:37:39.277Z,5.17
2023-01-28T10:40:08.131Z,5.17
2023-01-28T10:42:39.592Z,5.03
2023-01-28T10:45:15.838Z,5.10
2023-01-28T10:47:48.806Z,5.30
2023-01-28T10:50:20.602Z,5.40
2023-01-28T10:52:57.751Z,5.54
2023-01-28T10:55:29.031Z,5.56
2023-01-28T10:57:55.995Z,5.67
2023-01-28T11:00:24.467Z,5.59
2023-01-28T11:02:51.070Z,5.49
2023-01-28T11:05:21.689Z,5.58
2023-01-28T11:07:49.931Z,5.61
2023-01-28T11:10:34.846Z,5.85
2023-01-28T11:13:04.843Z,6.03
2023-01-28T11:15:32.341Z,6.04
2023-01-28T11:18:06.338Z,6.12
2023-01-28T11:20:38.946Z,6.21
2023-01-28T11:23:05.492Z,6.36
2023-01-28T11:25:37.429Z,6.21
2023-01-28T11:28:08.224Z,6.23
2023-01-28T11:30:40.189Z,6.17
2023-01-28T11:33:12.586Z,6.22
2023-01-28T11:35:39.241Z,6.20
2023-01-28T11:38:18.705Z,6.07
2023-01-28T11:40:56.151Z,6.17
2023-01-28T11:43:28.793Z,6.09
2023-01-28T11:46:07.260Z,6.22
2023-01-28T11:48:52.776Z,6.29
2023-01-28T11:51:43.088Z,6.34
2023-01-28T11:54:46.951Z,6.57
2023-01-28T11:57:39.693Z,6.69
2023-01-28T12:00:44.864Z,6.87
2023-01-28T12:03:36.150Z,6.81
2023-01-28T12:06:20.946Z,6.90
2023-01-28T12:09:06.825Z,7.17
2023-01-28T12:12:01.031Z,7.17
2023-01-28T12:14:56.558Z,6.98
2023-01-28T12:17:46.491Z,7.03
2023-01-28T12:20:21.893Z,7.04
2023-01-28T12:23:00.116Z,7.14
2023-01-28T12:25:26.534Z,7.28
2023-01-28T12:28:08.777Z,7.49
2023-01-28T12:30:41.262Z,7.55
2023-01-28T12:33:12.952Z,7.57
2023-01-28T12:35:51.260Z,7.39
2023-01-28T12:38:55.141Z,7.01
2023-01-28T12:41:28.399Z,6.74
2023-01-28T12:44:04.244Z,6.92
2023-01-28T12:46:55.610Z,7.08
2023-01-28T12:49:29.633Z,7.26
2023-01-28T12:52:07.161Z,7.46
2023-01-28T12:54:45.381Z,7.47
2023-01-28T12:57:19.049Z,7.47
2023-01-28T12:59:48.470Z,7.51
2023-01-28T13:02:15.091Z,7.34
2023-01-28T13:05:08.205Z,7.50
2023-01-28T13:07:56.636Z,7.62
2023-01-28T13:10:36.702Z,7.51
2023-01-28T13:13:05.573Z,7.52
2023-01-28T13:15:32.628Z,7.69
2023-01-28T13:18:01.148Z,7.89
2023-01-28T13:20:47.792Z,7.88
2023-01-28T13:23:44.772Z,8.04
2023-01-28T13:26:22.454Z,8.07
2023-01-28T13:28:52.193Z,8.22
2023-01-28T13:31:21.466Z,8.06
2023-01-28T13:33:53.932Z,7.62
2023-01-28T13:36:34.319Z,7.41
2023-01-28T13:39:14.506Z,7.50
2023-01-28T13:41:49.461Z,7.93
2023-01-28T13:44:25.293Z,8.14
2023-01-28T13:47:12.672Z,8.10
2023-01-28T13:49:44.098Z,8.26
2023-01-28T13:52:10.604Z,8.42
2023-01-28T13:54:43.875Z,8.58
2023-01-28T13:57:31.918Z,8.75
2023-01-28T14:00:46.845Z,8.56
2023-01-28T14:03:32.172Z,9.18
2023-01-28T14:06:20.479Z,9.50
2023-01-28T14:09:10.952Z,9.47
2023-01-28T14:11:40.345Z,9.23
2023-01-28T14:14:06.775Z,9.38
2023-01-28T14:16:55.600Z,9.54
2023-01-28T14:19:44.547Z,9.37
2023-01-28T14:22:19.117Z,9.39
2023-01-28T14:24:46.193Z,9.28
2023-01-28T14:27:22.971Z,9.50
2023-01-28T14:30:18.684Z,9.81
2023-01-28T14:32:48.244Z,10.68
2023-01-28T14:35:34.945Z,11.09
2023-01-28T14:38:09.159Z,11.21
2023-01-28T14:40:39.257Z,11.24
2023-01-28T14:43:15.898Z,11.13
2023-01-28T14:46:04.977Z,10.96
2023-01-28T14:48:49.748Z,11.45
2023-01-28T14:51:22.354Z,11.61
2023-01-28T14:54:03.287Z,11.63
2023-01-28T14:56:44.946Z,11.74
2023-01-28T14:59:49.733Z,12.06
2023-01-28T15:02:27.187Z,12.47
2023-01-28T15:04:54.505Z,12.36
2023-01-28T15:07:22.525Z,12.59
2023-01-28T15:10:24.484Z,12.38
2023-01-28T15:13:17.116Z,11.10
2023-01-28T15:15:49.821Z,10.12
2023-01-28T15:18:19.475Z,9.48
2023-01-28T15:20:52.597Z,8.86
2023-01-28T15:23:26.240Z,8.43
2023-01-28T15:25:55.321Z,8.23
2023-01-28T15:28:33.054Z,8.14
2023-01-28T15:31:00.164Z,7.95
2023-01-28T15:33:26.979Z,7.89
2023-01-28T15:35:55.243Z,7.83
2023-01-28T15:38:23.561Z,7.83
2023-01-28T15:40:58.823Z,7.83
2023-01-28T15:43:33.425Z,7.72
2023-01-28T15:46:00.666Z,7.59
2023-01-28T15:48:34.918Z,7.38
2023-01-28T15:51:07.834Z,7.33
2023-01-28T15:53:45.193Z,7.21
2023-01-28T15:56:13.732Z,7.24
2023-01-28T15:58:41.825Z,7.14
2023-01-28T16:01:08.579Z,7.22
2023-01-28T16:03:39.369Z,7.06
2023-01-28T16:06:10.052Z,6.87
2023-01-28T16:08:56.625Z,6.76
2023-01-28T16:11:33.544Z,6.73
2023-01-28T16:14:00.823Z,6.72
2023-01-28T16:16:34.444Z,6.58
2023-01-28T16:19:04.640Z,6.48
2023-01-28T16:21:38.549Z,6.48
2023-01-28T16:24:19.862Z,6.44
2023-01-28T16:26:56.280Z,6.34
2023-01-28T16:29:22.949Z,6.21
2023-01-28T16:31:49.438Z,6.30
2023-01-28T16:34:15.941Z,6.24
2023-01-28T16:36:42.515Z,6.22
2023-01-28T16:39:09.007Z,6.22
2023-01-28T16:41:42.455Z,6.13
2023-01-28T16:44:16.070Z,6.08
2023-01-28T16:46:43.377Z,6.04
2023-01-28T16:49:10.752Z,5.99
2023-01-28T16:51:41.024Z,5.83
2023-01-28T16:54:10.076Z,5.78
2023-01-28T16:56:45.175Z,5.79
2023-01-28T16:59:12.836Z,5.74
2023-01-28T17:01:39.939Z,5.69
2023-01-28T17:04:11.951Z,5.63
2023-01-28T17:06:44.327Z,5.57
2023-01-28T17:09:15.165Z,5.49
2023-01-28T17:11:42.442Z,5.50
2023-01-28T17:14:10.908Z,5.47
2023-01-28T17:16:38.479Z,5.48
2023-01-28T17:19:05.382Z,5.45
2023-01-28T17:21:32.032Z,5.38
2023-01-28T17:24:00.897Z,5.33
2023-01-28T17:26:29.057Z,5.42
2023-01-28T17:28:56.327Z,5.41
2023-01-28T17:31:23.573Z,5.34
2023-01-28T17:33:54.727Z,5.37
2023-01-28T17:36:21.712Z,5.33
2023-01-28T17:38:48.679Z,5.35
2023-01-28T17:41:15.227Z,5.30
2023-01-28T17:43:41.723Z,5.27
2023-01-28T17:46:15.189Z,5.19
2023-01-28T17:48:42.851Z,5.11
2023-01-28T17:51:09.643Z,5.10
2023-01-28T17:53:36.196Z,5.14
2023-01-28T17:56:02.688Z,5.10
2023-01-28T17:58:29.266Z,5.03
2023-01-28T18:00:55.775Z,5.07
2023-01-28T18:03:22.300Z,5.19
2023-01-28T18:05:59.609Z,5.16
2023-01-28T18:08:26.393Z,5.13
2023-01-28T18:10:52.939Z,5.06
2023-01-28T18:13:19.416Z,4.99
2023-01-28T18:15:45.884Z,5.12
2023-01-28T18:18:12.339Z,5.21
2023-01-28T18:20:38.805Z,5.25
2023-01-28T18:23:05.293Z,5.20
2023-01-28T18:25:31.818Z,5.26
2023-01-28T18:27:58.257Z,5.20
2023-01-28T18:30:24.726Z,5.22
2023-01-28T18:32:51.320Z,5.28
2023-01-28T18:35:18.231Z,5.23
2023-01-28T18:37:44.899Z,5.09
2023-01-28T18:40:11.985Z,4.96
2023-01-28T18:42:38.479Z,5.00
2023-01-28T18:45:05.556Z,4.98
2023-01-28T18:47:32.028Z,4.93
2023-01-28T18:49:58.505Z,4.91
2023-01-28T18:52:25.042Z,4.82
2023-01-28T18:54:51.539Z,4.86
2023-01-28T18:57:19.966Z,4.90
2023-01-28T18:59:47.264Z,4.93
2023-01-28T19:02:14.729Z,4.89
2023-01-28T19:04:41.294Z,4.84
2023-01-28T19:07:11.826Z,4.92
2023-01-28T19:09:38.594Z,4.97
2023-01-28T19:12:05.332Z,4.97
2023-01-28T19:14:32.024Z,5.04
2023-01-28T19:16:58.847Z,5.13
2023-01-28T19:19:25.614Z,5.19
2023-01-28T19:21:53.466Z,5.06
2023-01-28T19:24:20.079Z,4.99
2023-01-28T19:26:46.659Z,4.99
2023-01-28T19:29:15.792Z,4.90
2023-01-28T19:31:44.397Z,4.90
2023-01-28T19:34:11.159Z,4.94
2023-01-28T19:36:38.120Z,4.96
2023-01-28T19:39:07.131Z,4.89
2023-01-28T19:41:33.773Z,4.91
2023-01-28T19:44:00.248Z,4.95
2023-01-28T19:46:26.913Z,5.00
2023-01-28T19:48:54.187Z,4.97
2023-01-28T19:51:21.500Z,4.95
2023-01-28T19:53:51.369Z,5.04
2023-01-28T19:56:19.103Z,4.96
2023-01-28T19:58:46.425Z,4.86
2023-01-28T20:01:15.660Z,4.87
2023-01-28T20:03:42.776Z,4.90
2023-01-28T20:06:13.078Z,4.88
2023-01-28T20:08:39.611Z,4.83
2023-01-28T20:11:10.632Z,4.80
2023-01-28T20:13:38.799Z,4.84
2023-01-28T20:16:13.015Z,4.88
2023-01-28T20:18:39.598Z,4.88
2023-01-28T20:21:06.288Z,4.96
2023-01-28T20:23:32.878Z,5.04
2023-01-28T20:26:00.955Z,5.11
2023-01-28T20:28:28.206Z,5.11
2023-01-28T20:30:56.259Z,5.13
2023-01-28T20:33:23.608Z,5.13
2023-01-28T20:35:50.129Z,5.06
2023-01-28T20:38:16.689Z,5.07
2023-01-28T20:40:43.867Z,5.13
2023-01-28T20:43:10.367Z,5.08
2023-01-28T20:45:36.977Z,5.02
2023-01-28T20:48:03.578Z,4.98
2023-01-28T20:50:30.051Z,4.89
2023-01-28T20:52:56.585Z,4.87
2023-01-28T20:55:23.094Z,4.80
2023-01-28T20:57:52.248Z,4.81
2023-01-28T21:00:19.362Z,4.77
2023-01-28T21:02:46.121Z,4.80
2023-01-28T21:05:12.713Z,4.79
2023-01-28T21:07:39.406Z,4.73
2023-01-28T21:10:06.549Z,4.77
2023-01-28T21:12:33.112Z,4.72
2023-01-28T21:14:59.546Z,4.62
2023-01-28T21:17:26.061Z,4.57
2023-01-28T21:19:52.608Z,4.49
2023-01-28T21:22:20.238Z,4.47
2023-01-28T21:24:48.981Z,4.51
2023-01-28T21:27:15.659Z,4.59
2023-01-28T21:29:42.379Z,4.58
2023-01-28T21:32:09.039Z,4.58
2023-01-28T21:34:35.591Z,4.63
2023-01-28T21:37:02.093Z,4.65
2023-01-28T21:39:28.578Z,4.59
2023-01-28T21:41:54.998Z,4.62
2023-01-28T21:44:21.907Z,4.55
2023-01-28T21:46:48.353Z,4.58
2023-01-28T21:49:14.846Z,4.61
2023-01-28T21:51:47.366Z,4.61
2023-01-28T21:54:17.489Z,4.54
2023-01-28T21:56:45.419Z,4.58
2023-01-28T21:59:28.242Z,4.57
2023-01-28T22:02:02.689Z,4.47
2023-01-28T22:04:37.480Z,4.46
2023-01-28T22:07:07.122Z,4.61
2023-01-28T22:09:34.595Z,4.54
2023-01-28T22:12:03.602Z,4.47
2023-01-28T22:14:30.200Z,4.56
2023-01-28T22:16:56.697Z,4.54
2023-01-28T22:19:23.229Z,4.54
2023-01-28T22:21:49.753Z,4.60
2023-01-28T22:24:25.214Z,4.69
2023-01-28T22:26:53.824Z,4.74
2023-01-28T22:29:22.033Z,4.69
2023-01-28T22:31:50.830Z,4.53
2023-01-28T22:34:19.119Z,4.57
2023-01-28T22:36:46.469Z,4.62
2023-01-28T22:39:15.199Z,4.57
2023-01-28T22:41:43.504Z,4.45
2023-01-28T22:44:10.279Z,4.46
2023-01-28T22:46:37.488Z,4.44
2023-01-28T22:49:05.253Z,4.33
2023-01-28T22:51:34.418Z,4.38
2023-01-28T22:54:01.156Z,4.34
2023-01-28T22:56:28.991Z,4.28
2023-01-28T22:58:57.292Z,4.35
2023-01-28T23:01:24.316Z,4.28
2023-01-28T23:03:51.951Z,4.25
2023-01-28T23:06:20.831Z,4.26
2023-01-28T23:08:47.937Z,4.35
2023-01-28T23:11:15.982Z,4.31
2023-01-28T23:14:02.433Z,4.26
2023-01-28T23:16:49.373Z,4.26
2023-01-28T23:19:35.471Z,4.23
2023-01-28T23:22:20.401Z,4.21
2023-01-28T23:24:46.866Z,4.13
2023-01-28T23:27:13.322Z,4.13
2023-01-28T23:29:39.848Z,4.17
2023-01-28T23:32:09.859Z,4.19
2023-01-28T23:34:41.443Z,4.28
2023-01-28T23:37:09.380Z,4.34
2023-01-28T23:39:36.145Z,4.31
2023-01-28T23:42:17.057Z,4.45
2023-01-28T23:44:44.118Z,4.37
2023-01-28T23:47:11.395Z,4.29
2023-01-28T23:49:38.839Z,4.22
2023-01-28T23:52:06.353Z,4.25
2023-01-28T23:54:33.295Z,4.26
2023-01-28T23:57:00.629Z,4.17
2023-01-28T23:59:27.424Z,4.15
